Terminal Aerodrome Forecast
Issued by NWS Cleveland, OH

Home | Current Version | Previous Version | Graphics & Text | Print | Product List | Glossary On
Versions: 1 2 3 4 5 6 7 8 9 10 11 12 13 14 15 16 17 18 19 20 21 22
000
FTUS41 KCLE 231910 AAB
TAFERI
TAF AMD
KERI 231910Z 2319/2418 02011KT P6SM SCT015 BKN090
      TEMPO 2319/2323 BKN015
     FM232300 04012KT P6SM BKN012 OVC035
     FM241300 04010KT P6SM SCT020=

USA.gov is the U.S. government's official web portal to all federal, state and local government web resources and services.